sensor_id;sensor_type;location;lat;lon;timestamp;pressure;altitude;pressure_sealevel;temperature;humidity
69971;BME280;57301;50.328;8.542;2023-02-18T00:00:27;99210.03;;;10.22;86.88
69971;BME280;57301;50.328;8.542;2023-02-18T00:02:54;99199.66;;;10.19;87.18
69971;BME280;57301;50.328;8.542;2023-02-18T00:05:23;99193.13;;;10.12;87.78
69971;BME280;57301;50.328;8.542;2023-02-18T00:07:50;99192.72;;;10.07;88.36
69971;BME280;57301;50.328;8.542;2023-02-18T00:10:17;99192.88;;;10.15;87.85
69971;BME280;57301;50.328;8.542;2023-02-18T00:12:44;99185.19;;;10.21;87.32
69971;BME280;57301;50.328;8.542;2023-02-18T00:15:11;99196.09;;;10.09;87.48
69971;BME280;57301;50.328;8.542;2023-02-18T00:17:38;99190.91;;;10.07;87.71
69971;BME280;57301;50.328;8.542;2023-02-18T00:20:06;99193.97;;;10.03;87.44
69971;BME280;57301;50.328;8.542;2023-02-18T00:22:33;99195.38;;;10.07;87.33
69971;BME280;57301;50.328;8.542;2023-02-18T00:25:01;99199.28;;;10.03;87.65
69971;BME280;57301;50.328;8.542;2023-02-18T00:27:27;99195.06;;;10.31;86.06
69971;BME280;57301;50.328;8.542;2023-02-18T00:29:54;99199.66;;;10.19;86.46
69971;BME280;57301;50.328;8.542;2023-02-18T00:32:21;99191.47;;;10.11;87.28
69971;BME280;57301;50.328;8.542;2023-02-18T00:34:47;99193.72;;;10.15;87.08
69971;BME280;57301;50.328;8.542;2023-02-18T00:37:14;99189.31;;;10.05;87.75
69971;BME280;57301;50.328;8.542;2023-02-18T00:39:41;99208.09;;;10.24;86.41
69971;BME280;57301;50.328;8.542;2023-02-18T00:42:09;99194.66;;;10.26;86.56
69971;BME280;57301;50.328;8.542;2023-02-18T00:44:35;99189.78;;;10.10;86.57
69971;BME280;57301;50.328;8.542;2023-02-18T00:47:02;99194.78;;;10.03;87.77
69971;BME280;57301;50.328;8.542;2023-02-18T00:49:29;99196.84;;;10.20;86.50
69971;BME280;57301;50.328;8.542;2023-02-18T00:51:55;99200.50;;;10.19;86.36
69971;BME280;57301;50.328;8.542;2023-02-18T00:54:22;99197.91;;;10.08;86.91
69971;BME280;57301;50.328;8.542;2023-02-18T00:56:51;99199.97;;;10.05;87.13
69971;BME280;57301;50.328;8.542;2023-02-18T00:59:17;99196.94;;;10.09;87.27
69971;BME280;57301;50.328;8.542;2023-02-18T01:01:44;99187.59;;;9.94;87.71
69971;BME280;57301;50.328;8.542;2023-02-18T01:04:10;99183.16;;;10.04;88.24
69971;BME280;57301;50.328;8.542;2023-02-18T01:06:37;99183.75;;;10.08;88.05
69971;BME280;57301;50.328;8.542;2023-02-18T01:09:05;99175.66;;;9.88;88.46
69971;BME280;57301;50.328;8.542;2023-02-18T01:11:31;99174.59;;;10.01;87.87
69971;BME280;57301;50.328;8.542;2023-02-18T01:13:58;99181.88;;;9.99;87.49
69971;BME280;57301;50.328;8.542;2023-02-18T01:16:25;99186.94;;;10.02;88.20
69971;BME280;57301;50.328;8.542;2023-02-18T01:18:52;99189.16;;;9.96;88.46
69971;BME280;57301;50.328;8.542;2023-02-18T01:21:19;99177.03;;;10.13;87.29
69971;BME280;57301;50.328;8.542;2023-02-18T01:23:45;99179.13;;;10.10;87.17
69971;BME280;57301;50.328;8.542;2023-02-18T01:26:12;99171.97;;;10.10;86.78
69971;BME280;57301;50.328;8.542;2023-02-18T01:28:39;99156.13;;;10.09;86.71
69971;BME280;57301;50.328;8.542;2023-02-18T01:31:09;99160.00;;;9.95;86.65
69971;BME280;57301;50.328;8.542;2023-02-18T01:33:36;99166.31;;;10.04;86.26
69971;BME280;57301;50.328;8.542;2023-02-18T01:36:04;99155.22;;;9.99;86.42
69971;BME280;57301;50.328;8.542;2023-02-18T01:38:31;99150.09;;;10.16;86.25
69971;BME280;57301;50.328;8.542;2023-02-18T01:40:57;99148.63;;;10.23;85.58
69971;BME280;57301;50.328;8.542;2023-02-18T01:43:24;99148.13;;;10.18;86.05
69971;BME280;57301;50.328;8.542;2023-02-18T01:48:33;99142.78;;;10.09;86.37
69971;BME280;57301;50.328;8.542;2023-02-18T01:51:16;99140.06;;;9.99;86.79
69971;BME280;57301;50.328;8.542;2023-02-18T01:54:09;99143.31;;;10.03;86.22
69971;BME280;57301;50.328;8.542;2023-02-18T01:59:32;99148.50;;;9.94;85.67
69971;BME280;57301;50.328;8.542;2023-02-18T02:01:59;99139.59;;;9.84;87.32
69971;BME280;57301;50.328;8.542;2023-02-18T02:04:26;99127.81;;;9.87;86.15
69971;BME280;57301;50.328;8.542;2023-02-18T02:06:53;99129.25;;;9.91;86.79
69971;BME280;57301;50.328;8.542;2023-02-18T02:09:21;99128.06;;;9.74;87.18
69971;BME280;57301;50.328;8.542;2023-02-18T02:12:01;99120.19;;;9.73;87.25
69971;BME280;57301;50.328;8.542;2023-02-18T02:14:46;99121.44;;;9.68;87.80
69971;BME280;57301;50.328;8.542;2023-02-18T02:17:27;99127.44;;;9.61;88.29
69971;BME280;57301;50.328;8.542;2023-02-18T02:20:30;99126.06;;;9.66;87.93
69971;BME280;57301;50.328;8.542;2023-02-18T02:35:18;99105.53;;;9.57;89.49
69971;BME280;57301;50.328;8.542;2023-02-18T02:38:02;99126.97;;;9.77;88.62
69971;BME280;57301;50.328;8.542;2023-02-18T02:40:51;99112.38;;;9.81;89.38
69971;BME280;57301;50.328;8.542;2023-02-18T02:43:30;99118.00;;;9.78;90.58
69971;BME280;57301;50.328;8.542;2023-02-18T02:48:34;99111.31;;;9.62;94.21
69971;BME280;57301;50.328;8.542;2023-02-18T02:51:10;99110.53;;;9.51;95.30
69971;BME280;57301;50.328;8.542;2023-02-18T02:53:40;99111.44;;;9.61;95.09
69971;BME280;57301;50.328;8.542;2023-02-18T02:56:23;99109.69;;;9.50;95.68
69971;BME280;57301;50.328;8.542;2023-02-18T02:58:58;99105.13;;;9.52;95.82
69971;BME280;57301;50.328;8.542;2023-02-18T03:04:46;99108.78;;;9.61;93.84
69971;BME280;57301;50.328;8.542;2023-02-18T03:10:18;99096.28;;;9.52;92.45
69971;BME280;57301;50.328;8.542;2023-02-18T03:12:59;99095.63;;;9.59;92.71
69971;BME280;57301;50.328;8.542;2023-02-18T03:15:51;99085.09;;;9.58;92.40
69971;BME280;57301;50.328;8.542;2023-02-18T03:18:32;99094.84;;;9.48;92.24
69971;BME280;57301;50.328;8.542;2023-02-18T03:21:04;99080.94;;;9.44;93.29
69971;BME280;57301;50.328;8.542;2023-02-18T03:23:37;99073.69;;;9.46;93.06
69971;BME280;57301;50.328;8.542;2023-02-18T03:26:05;99067.16;;;9.60;92.05
69971;BME280;57301;50.328;8.542;2023-02-18T03:28:34;99083.53;;;9.55;91.52
69971;BME280;57301;50.328;8.542;2023-02-18T03:31:07;99073.50;;;9.68;90.34
69971;BME280;57301;50.328;8.542;2023-02-18T03:33:51;99069.69;;;9.61;90.11
69971;BME280;57301;50.328;8.542;2023-02-18T03:36:20;99079.25;;;9.64;90.56
69971;BME280;57301;50.328;8.542;2023-02-18T03:38:53;99083.31;;;9.68;89.15
69971;BME280;57301;50.328;8.542;2023-02-18T03:41:21;99077.63;;;9.82;88.31
69971;BME280;57301;50.328;8.542;2023-02-18T03:43:51;99089.91;;;9.64;89.31
69971;BME280;57301;50.328;8.542;2023-02-18T03:46:18;99099.13;;;9.60;89.82
69971;BME280;57301;50.328;8.542;2023-02-18T03:48:45;99099.28;;;9.68;89.54
69971;BME280;57301;50.328;8.542;2023-02-18T03:51:11;99096.31;;;9.61;90.76
69971;BME280;57301;50.328;8.542;2023-02-18T03:53:38;99099.34;;;9.47;92.57
69971;BME280;57301;50.328;8.542;2023-02-18T03:56:05;99092.31;;;9.46;93.26
69971;BME280;57301;50.328;8.542;2023-02-18T03:58:32;99083.13;;;9.29;94.83
69971;BME280;57301;50.328;8.542;2023-02-18T04:00:58;99091.66;;;9.33;95.24
69971;BME280;57301;50.328;8.542;2023-02-18T04:03:25;99090.44;;;9.37;94.78
69971;BME280;57301;50.328;8.542;2023-02-18T04:05:51;99084.28;;;9.36;93.60
69971;BME280;57301;50.328;8.542;2023-02-18T04:08:18;99092.25;;;9.36;94.17
69971;BME280;57301;50.328;8.542;2023-02-18T04:10:44;99081.22;;;9.41;93.86
69971;BME280;57301;50.328;8.542;2023-02-18T04:13:11;99075.13;;;9.29;94.58
69971;BME280;57301;50.328;8.542;2023-02-18T04:15:38;99074.84;;;9.32;96.08
69971;BME280;57301;50.328;8.542;2023-02-18T04:18:04;99061.81;;;9.29;95.30
69971;BME280;57301;50.328;8.542;2023-02-18T04:20:31;99063.69;;;9.38;95.25
69971;BME280;57301;50.328;8.542;2023-02-18T04:22:57;99066.47;;;9.37;95.45
69971;BME280;57301;50.328;8.542;2023-02-18T04:25:24;99070.91;;;9.27;95.23
69971;BME280;57301;50.328;8.542;2023-02-18T04:27:50;99065.47;;;9.28;96.44
69971;BME280;57301;50.328;8.542;2023-02-18T04:30:17;99069.50;;;9.23;96.87
69971;BME280;57301;50.328;8.542;2023-02-18T04:32:44;99067.84;;;9.31;96.75
69971;BME280;57301;50.328;8.542;2023-02-18T04:35:11;99066.16;;;9.30;95.82
69971;BME280;57301;50.328;8.542;2023-02-18T04:37:37;99061.50;;;9.23;96.98
69971;BME280;57301;50.328;8.542;2023-02-18T04:40:04;99054.94;;;9.27;98.31
69971;BME280;57301;50.328;8.542;2023-02-18T04:42:31;99057.16;;;9.22;98.11
69971;BME280;57301;50.328;8.542;2023-02-18T04:44:57;99067.81;;;9.22;97.57
69971;BME280;57301;50.328;8.542;2023-02-18T04:47:24;99059.94;;;9.20;98.07
69971;BME280;57301;50.328;8.542;2023-02-18T04:49:50;99048.25;;;9.32;98.44
69971;BME280;57301;50.328;8.542;2023-02-18T04:52:17;99046.69;;;9.30;97.59
69971;BME280;57301;50.328;8.542;2023-02-18T04:54:44;99042.03;;;9.22;97.10
69971;BME280;57301;50.328;8.542;2023-02-18T04:57:11;99045.94;;;9.18;97.69
69971;BME280;57301;50.328;8.542;2023-02-18T04:59:37;99041.84;;;9.35;96.78
69971;BME280;57301;50.328;8.542;2023-02-18T05:02:04;99042.16;;;9.41;96.58
69971;BME280;57301;50.328;8.542;2023-02-18T05:04:31;99033.47;;;9.39;96.71
69971;BME280;57301;50.328;8.542;2023-02-18T05:06:57;99033.34;;;9.20;97.18
69971;BME280;57301;50.328;8.542;2023-02-18T05:09:24;99042.50;;;9.27;97.78
69971;BME280;57301;50.328;8.542;2023-02-18T05:11:50;99042.34;;;9.29;96.62
69971;BME280;57301;50.328;8.542;2023-02-18T05:14:17;99036.91;;;9.30;96.28
69971;BME280;57301;50.328;8.542;2023-02-18T05:16:44;99029.38;;;9.35;95.98
69971;BME280;57301;50.328;8.542;2023-02-18T05:19:14;99019.69;;;9.34;95.24
69971;BME280;57301;50.328;8.542;2023-02-18T05:21:41;99013.94;;;9.39;95.88
69971;BME280;57301;50.328;8.542;2023-02-18T05:24:08;99015.22;;;9.35;95.35
69971;BME280;57301;50.328;8.542;2023-02-18T05:26:35;99016.53;;;9.50;94.64
69971;BME280;57301;50.328;8.542;2023-02-18T05:29:01;99006.59;;;9.52;93.72
69971;BME280;57301;50.328;8.542;2023-02-18T05:31:27;99009.28;;;9.52;93.08
69971;BME280;57301;50.328;8.542;2023-02-18T05:33:54;99012.50;;;9.56;93.94
69971;BME280;57301;50.328;8.542;2023-02-18T05:36:21;99002.06;;;9.43;95.46
69971;BME280;57301;50.328;8.542;2023-02-18T05:38:47;98994.69;;;9.47;95.75
69971;BME280;57301;50.328;8.542;2023-02-18T05:41:13;98991.78;;;9.29;98.32
69971;BME280;57301;50.328;8.542;2023-02-18T05:43:40;98990.59;;;9.12;99.33
69971;BME280;57301;50.328;8.542;2023-02-18T05:46:25;98979.09;;;9.11;100.00
69971;BME280;57301;50.328;8.542;2023-02-18T05:48:51;98977.03;;;9.15;100.00
69971;BME280;57301;50.328;8.542;2023-02-18T05:51:18;98981.38;;;9.16;100.00
69971;BME280;57301;50.328;8.542;2023-02-18T05:53:44;98976.13;;;9.05;100.00
69971;BME280;57301;50.328;8.542;2023-02-18T05:56:11;98975.28;;;9.04;100.00
69971;BME280;57301;50.328;8.542;2023-02-18T05:58:37;98973.66;;;9.13;100.00
69971;BME280;57301;50.328;8.542;2023-02-18T06:01:04;98975.31;;;9.14;100.00
69971;BME280;57301;50.328;8.542;2023-02-18T06:03:30;98969.59;;;9.09;100.00
69971;BME280;57301;50.328;8.542;2023-02-18T06:05:57;98968.84;;;9.07;100.00
69971;BME280;57301;50.328;8.542;2023-02-18T06:08:23;98971.66;;;9.05;100.00
69971;BME280;57301;50.328;8.542;2023-02-18T06:10:50;98961.84;;;9.06;100.00
69971;BME280;57301;50.328;8.542;2023-02-18T06:13:16;98963.75;;;8.94;100.00
69971;BME280;57301;50.328;8.542;2023-02-18T06:15:43;98966.41;;;8.94;100.00
69971;BME280;57301;50.328;8.542;2023-02-18T06:18:09;98962.00;;;9.04;100.00
69971;BME280;57301;50.328;8.542;2023-02-18T06:20:36;98962.84;;;9.05;100.00
69971;BME280;57301;50.328;8.542;2023-02-18T06:23:03;98958.81;;;9.10;100.00
69971;BME280;57301;50.328;8.542;2023-02-18T06:25:32;98964.81;;;9.12;100.00
69971;BME280;57301;50.328;8.542;2023-02-18T06:27:59;98972.94;;;9.11;100.00
69971;BME280;57301;50.328;8.542;2023-02-18T06:30:25;98966.50;;;9.13;100.00
69971;BME280;57301;50.328;8.542;2023-02-18T06:32:52;98972.28;;;9.19;99.36
69971;BME280;57301;50.328;8.542;2023-02-18T06:35:18;98970.91;;;9.24;98.22
69971;BME280;57301;50.328;8.542;2023-02-18T06:37:44;98971.66;;;9.36;97.33
69971;BME280;57301;50.328;8.542;2023-02-18T06:40:11;98970.66;;;9.27;96.97
69971;BME280;57301;50.328;8.542;2023-02-18T06:42:38;98966.56;;;9.33;96.68
69971;BME280;57301;50.328;8.542;2023-02-18T06:45:05;98959.78;;;9.40;96.68
69971;BME280;57301;50.328;8.542;2023-02-18T06:47:34;98958.19;;;9.37;95.60
69971;BME280;57301;50.328;8.542;2023-02-18T06:50:01;98954.78;;;9.26;96.05
69971;BME280;57301;50.328;8.542;2023-02-18T06:52:27;98965.75;;;9.32;95.45
69971;BME280;57301;50.328;8.542;2023-02-18T06:54:55;98935.53;;;9.43;94.77
69971;BME280;57301;50.328;8.542;2023-02-18T06:57:22;98940.28;;;9.39;94.50
69971;BME280;57301;50.328;8.542;2023-02-18T06:59:48;98945.22;;;9.54;93.92
69971;BME280;57301;50.328;8.542;2023-02-18T07:02:15;98942.81;;;9.51;94.48
69971;BME280;57301;50.328;8.542;2023-02-18T07:04:42;98945.09;;;9.46;93.55
69971;BME280;57301;50.328;8.542;2023-02-18T07:07:10;98940.78;;;9.74;92.54
69971;BME280;57301;50.328;8.542;2023-02-18T07:09:37;98942.28;;;9.57;91.14
69971;BME280;57301;50.328;8.542;2023-02-18T07:12:03;98935.03;;;9.59;91.25
69971;BME280;57301;50.328;8.542;2023-02-18T07:14:30;98933.38;;;9.77;89.87
69971;BME280;57301;50.328;8.542;2023-02-18T07:16:56;98938.66;;;9.58;91.49
69971;BME280;57301;50.328;8.542;2023-02-18T07:19:23;98943.88;;;9.79;90.63
69971;BME280;57301;50.328;8.542;2023-02-18T07:21:49;98937.41;;;9.62;90.13
69971;BME280;57301;50.328;8.542;2023-02-18T07:24:16;98934.28;;;9.57;89.53
69971;BME280;57301;50.328;8.542;2023-02-18T07:26:42;98934.84;;;9.51;90.08
69971;BME280;57301;50.328;8.542;2023-02-18T07:29:09;98933.16;;;9.40;89.96
69971;BME280;57301;50.328;8.542;2023-02-18T07:31:35;98921.91;;;9.36;90.49
69971;BME280;57301;50.328;8.542;2023-02-18T07:34:04;98927.28;;;9.46;89.31
69971;BME280;57301;50.328;8.542;2023-02-18T07:36:30;98927.28;;;9.46;87.81
69971;BME280;57301;50.328;8.542;2023-02-18T07:38:56;98934.00;;;9.40;87.82
69971;BME280;57301;50.328;8.542;2023-02-18T07:41:24;98927.97;;;9.48;87.90
69971;BME280;57301;50.328;8.542;2023-02-18T07:43:50;98920.03;;;9.58;87.59
69971;BME280;57301;50.328;8.542;2023-02-18T07:46:17;98916.81;;;9.74;86.44
69971;BME280;57301;50.328;8.542;2023-02-18T07:48:43;98913.97;;;9.56;86.54
69971;BME280;57301;50.328;8.542;2023-02-18T07:51:11;98899.53;;;9.49;86.38
69971;BME280;57301;50.328;8.542;2023-02-18T07:53:39;98902.19;;;9.49;85.54
69971;BME280;57301;50.328;8.542;2023-02-18T07:56:05;98902.19;;;9.49;84.32
69971;BME280;57301;50.328;8.542;2023-02-18T07:58:35;98895.53;;;9.64;83.04
69971;BME280;57301;50.328;8.542;2023-02-18T08:01:11;98888.63;;;9.61;81.54
69971;BME280;57301;50.328;8.542;2023-02-18T08:03:40;98906.28;;;9.62;81.54
69971;BME280;57301;50.328;8.542;2023-02-18T08:06:07;98915.25;;;9.52;83.48
69971;BME280;57301;50.328;8.542;2023-02-18T08:08:34;98911.72;;;9.41;83.35
69971;BME280;57301;50.328;8.542;2023-02-18T08:11:03;98913.25;;;9.34;84.50
69971;BME280;57301;50.328;8.542;2023-02-18T08:13:44;98930.50;;;9.50;83.85
69971;BME280;57301;50.328;8.542;2023-02-18T08:16:12;98934.53;;;9.44;84.94
69971;BME280;57301;50.328;8.542;2023-02-18T08:18:39;98930.25;;;9.53;83.85
69971;BME280;57301;50.328;8.542;2023-02-18T08:21:05;98942.97;;;9.39;83.59
69971;BME280;57301;50.328;8.542;2023-02-18T08:23:32;98953.84;;;9.36;83.33
69971;BME280;57301;50.328;8.542;2023-02-18T08:25:58;98951.94;;;9.48;83.45
69971;BME280;57301;50.328;8.542;2023-02-18T08:28:25;98948.88;;;9.53;83.46
69971;BME280;57301;50.328;8.542;2023-02-18T08:30:53;98953.91;;;9.46;83.33
69971;BME280;57301;50.328;8.542;2023-02-18T08:33:20;98961.16;;;9.44;83.55
69971;BME280;57301;50.328;8.542;2023-02-18T08:35:49;98957.22;;;9.38;82.65
69971;BME280;57301;50.328;8.542;2023-02-18T08:38:16;98964.78;;;9.33;83.09
69971;BME280;57301;50.328;8.542;2023-02-18T08:40:42;98966.50;;;9.44;80.59
69971;BME280;57301;50.328;8.542;2023-02-18T08:43:09;98957.50;;;9.35;82.21
69971;BME280;57301;50.328;8.542;2023-02-18T08:45:37;98952.09;;;9.47;81.49
69971;BME280;57301;50.328;8.542;2023-02-18T08:48:05;98954.66;;;9.67;80.59
69971;BME280;57301;50.328;8.542;2023-02-18T08:50:45;98958.34;;;9.86;79.46
69971;BME280;57301;50.328;8.542;2023-02-18T08:53:12;98961.41;;;9.72;79.19
69971;BME280;57301;50.328;8.542;2023-02-18T08:55:39;98950.28;;;9.57;78.55
69971;BME280;57301;50.328;8.542;2023-02-18T08:58:06;98959.56;;;9.72;79.24
69971;BME280;57301;50.328;8.542;2023-02-18T09:00:33;98960.38;;;9.63;78.06
69971;BME280;57301;50.328;8.542;2023-02-18T09:03:00;98952.97;;;9.66;79.39
69971;BME280;57301;50.328;8.542;2023-02-18T09:05:27;98948.03;;;9.52;78.74
69971;BME280;57301;50.328;8.542;2023-02-18T09:07:53;98948.03;;;9.52;79.29
69971;BME280;57301;50.328;8.542;2023-02-18T09:10:20;98957.41;;;9.47;78.67
69971;BME280;57301;50.328;8.542;2023-02-18T09:12:47;98959.63;;;9.51;79.48
69971;BME280;57301;50.328;8.542;2023-02-18T09:15:13;98961.16;;;9.34;79.40
69971;BME280;57301;50.328;8.542;2023-02-18T09:17:40;98962.19;;;9.53;79.58
69971;BME280;57301;50.328;8.542;2023-02-18T09:20:07;98950.16;;;9.58;78.99
69971;BME280;57301;50.328;8.542;2023-02-18T09:22:33;98942.81;;;9.51;78.72
69971;BME280;57301;50.328;8.542;2023-02-18T09:25:00;98940.28;;;9.39;79.59
69971;BME280;57301;50.328;8.542;2023-02-18T09:27:26;98944.78;;;9.49;79.47
69971;BME280;57301;50.328;8.542;2023-02-18T09:29:53;98961.78;;;9.67;78.84
69971;BME280;57301;50.328;8.542;2023-02-18T09:32:19;98963.47;;;9.58;78.89
69971;BME280;57301;50.328;8.542;2023-02-18T09:34:59;98968.81;;;9.68;77.40
69971;BME280;57301;50.328;8.542;2023-02-18T09:37:26;98973.22;;;9.48;77.93
69971;BME280;57301;50.328;8.542;2023-02-18T09:39:54;98950.41;;;9.46;77.36
69971;BME280;57301;50.328;8.542;2023-02-18T09:42:26;98964.56;;;9.56;77.31
69971;BME280;57301;50.328;8.542;2023-02-18T09:44:55;98968.53;;;9.71;77.28
69971;BME280;57301;50.328;8.542;2023-02-18T09:47:34;98969.81;;;9.86;76.82
69971;BME280;57301;50.328;8.542;2023-02-18T09:50:23;98978.00;;;10.04;76.77
69971;BME280;57301;50.328;8.542;2023-02-18T09:52:51;98966.06;;;9.89;75.89
69971;BME280;57301;50.328;8.542;2023-02-18T09:55:28;98970.78;;;9.76;76.62
69971;BME280;57301;50.328;8.542;2023-02-18T09:57:59;98970.78;;;9.76;75.99
69971;BME280;57301;50.328;8.542;2023-02-18T10:00:42;98966.19;;;9.87;75.63
69971;BME280;57301;50.328;8.542;2023-02-18T10:03:21;98965.78;;;10.02;75.62
69971;BME280;57301;50.328;8.542;2023-02-18T10:06:02;98955.13;;;9.92;75.73
69971;BME280;57301;50.328;8.542;2023-02-18T10:08:38;98939.44;;;10.08;73.83
69971;BME280;57301;50.328;8.542;2023-02-18T10:11:23;98945.59;;;10.09;74.51
69971;BME280;57301;50.328;8.542;2023-02-18T10:13:54;98951.50;;;10.22;74.99
69971;BME280;57301;50.328;8.542;2023-02-18T10:16:22;98945.59;;;9.99;75.18
69971;BME280;57301;50.328;8.542;2023-02-18T10:18:52;98955.69;;;9.95;75.32
69971;BME280;57301;50.328;8.542;2023-02-18T10:21:25;98949.25;;;10.08;73.69
69971;BME280;57301;50.328;8.542;2023-02-18T10:24:00;98944.28;;;9.64;75.88
69971;BME280;57301;50.328;8.542;2023-02-18T10:26:29;98949.78;;;9.92;76.25
69971;BME280;57301;50.328;8.542;2023-02-18T10:28:57;98936.34;;;10.13;75.49
69971;BME280;57301;50.328;8.542;2023-02-18T10:31:36;98948.41;;;10.07;74.94
69971;BME280;57301;50.328;8.542;2023-02-18T10:34:18;98957.50;;;10.05;76.12
69971;BME280;57301;50.328;8.542;2023-02-18T10:36:54;98954.00;;;10.04;76.81
69971;BME280;57301;50.328;8.542;2023-02-18T10:39:43;98959.34;;;10.04;77.09
69971;BME280;57301;50.328;8.542;2023-02-18T10:50:44;98947.00;;;10.03;76.55
69971;BME280;57301;50.328;8.542;2023-02-18T10:53:35;98948.63;;;9.75;79.62
69971;BME280;57301;50.328;8.542;2023-02-18T10:56:04;98945.66;;;9.59;83.55
69971;BME280;57301;50.328;8.542;2023-02-18T10:58:45;98941.72;;;9.53;85.08
69971;BME280;57301;50.328;8.542;2023-02-18T11:01:22;98936.88;;;9.87;84.06
69971;BME280;57301;50.328;8.542;2023-02-18T11:03:51;98941.38;;;9.96;83.40
69971;BME280;57301;50.328;8.542;2023-02-18T11:06:30;98930.03;;;10.14;81.52
69971;BME280;57301;50.328;8.542;2023-02-18T11:08:58;98932.84;;;10.22;80.44
69971;BME280;57301;50.328;8.542;2023-02-18T11:11:33;98924.28;;;10.47;78.81
69971;BME280;57301;50.328;8.542;2023-02-18T11:14:04;98920.78;;;10.47;77.86
69971;BME280;57301;50.328;8.542;2023-02-18T11:16:44;98930.72;;;10.55;77.62
69971;BME280;57301;50.328;8.542;2023-02-18T11:19:37;98928.09;;;10.35;77.46
69971;BME280;57301;50.328;8.542;2023-02-18T11:24:37;98916.28;;;9.99;79.33
69971;BME280;57301;50.328;8.542;2023-02-18T11:29:55;98906.44;;;9.80;78.63
69971;BME280;57301;50.328;8.542;2023-02-18T11:32:27;98900.88;;;10.03;78.98
69971;BME280;57301;50.328;8.542;2023-02-18T11:34:56;98906.28;;;9.62;79.25
69971;BME280;57301;50.328;8.542;2023-02-18T11:37:23;98896.66;;;9.71;79.48
69971;BME280;57301;50.328;8.542;2023-02-18T11:39:52;98902.97;;;9.70;78.51
69971;BME280;57301;50.328;8.542;2023-02-18T11:42:22;98901.44;;;9.96;77.44
69971;BME280;57301;50.328;8.542;2023-02-18T11:44:55;98899.75;;;10.15;76.51
69971;BME280;57301;50.328;8.542;2023-02-18T11:47:33;98898.63;;;9.98;75.82
69971;BME280;57301;50.328;8.542;2023-02-18T11:52:44;98881.09;;;9.95;76.42
69971;BME280;57301;50.328;8.542;2023-02-18T11:55:22;98882.06;;;10.04;75.71
69971;BME280;57301;50.328;8.542;2023-02-18T11:57:55;98874.75;;;10.06;75.88
69971;BME280;57301;50.328;8.542;2023-02-18T12:00:40;98871.53;;;10.22;75.27
69971;BME280;57301;50.328;8.542;2023-02-18T12:03:16;98872.94;;;10.45;75.08
69971;BME280;57301;50.328;8.542;2023-02-18T12:05:44;98859.47;;;10.47;74.73
69971;BME280;57301;50.328;8.542;2023-02-18T12:08:26;98863.38;;;10.62;74.47
69971;BME280;57301;50.328;8.542;2023-02-18T12:11:01;98865.72;;;10.75;72.34
69971;BME280;57301;50.328;8.542;2023-02-18T12:13:49;98869.69;;;10.52;73.10
69971;BME280;57301;50.328;8.542;2023-02-18T12:16:44;98877.84;;;10.50;73.92
69971;BME280;57301;50.328;8.542;2023-02-18T12:24:47;98881.50;;;10.10;76.50
69971;BME280;57301;50.328;8.542;2023-02-18T12:27:26;98887.53;;;10.03;77.55
69971;BME280;57301;50.328;8.542;2023-02-18T12:42:23;98871.00;;;10.09;83.30
69971;BME280;57301;50.328;8.542;2023-02-18T12:48:31;98883.63;;;10.07;82.81
69971;BME280;57301;50.328;8.542;2023-02-18T12:50:29;98893.16;;;10.19;81.41
69971;BME280;57301;50.328;8.542;2023-02-18T12:53:24;98884.19;;;10.01;83.12
69971;BME280;57301;50.328;8.542;2023-02-18T12:56:11;98886.84;;;10.30;81.93
69971;BME280;57301;50.328;8.542;2023-02-18T13:02:10;98887.53;;;10.12;81.38
69971;BME280;57301;50.328;8.542;2023-02-18T13:04:58;98885.00;;;10.11;81.75
69971;BME280;57301;50.328;8.542;2023-02-18T13:13:24;98883.34;;;10.19;81.98
69971;BME280;57301;50.328;8.542;2023-02-18T13:15:58;98879.63;;;9.43;85.84
69971;BME280;57301;50.328;8.542;2023-02-18T13:21:07;98878.56;;;9.75;86.00
69971;BME280;57301;50.328;8.542;2023-02-18T13:23:50;98883.34;;;9.90;85.69
69971;BME280;57301;50.328;8.542;2023-02-18T13:26:20;98876.31;;;9.70;85.79
69971;BME280;57301;50.328;8.542;2023-02-18T13:29:04;98868.72;;;9.56;86.02
69971;BME280;57301;50.328;8.542;2023-02-18T13:34:30;98886.81;;;9.62;86.95
69971;BME280;57301;50.328;8.542;2023-02-18T13:39:56;98864.25;;;9.76;86.20
69971;BME280;57301;50.328;8.542;2023-02-18T13:47:40;98870.72;;;10.31;84.27
69971;BME280;57301;50.328;8.542;2023-02-18T13:50:40;98871.13;;;10.17;84.06
69971;BME280;57301;50.328;8.542;2023-02-18T13:56:16;98867.91;;;10.04;83.76
69971;BME280;57301;50.328;8.542;2023-02-18T13:58:34;98875.06;;;10.13;83.43
69971;BME280;57301;50.328;8.542;2023-02-18T14:01:06;98872.94;;;10.16;83.92
69971;BME280;57301;50.328;8.542;2023-02-18T14:06:31;98871.00;;;10.09;85.68
69971;BME280;57301;50.328;8.542;2023-02-18T14:14:58;98866.78;;;10.45;nan
69971;BME280;57301;50.328;8.542;2023-02-18T14:17:30;98872.53;;;10.50;84.17
69971;BME280;57301;50.328;8.542;2023-02-18T14:27:34;98853.72;;;10.42;82.73
69971;BME280;57301;50.328;8.542;2023-02-18T14:30:04;98858.50;;;10.29;83.17
69971;BME280;57301;50.328;8.542;2023-02-18T14:32:32;98853.03;;;10.20;83.41
69971;BME280;57301;50.328;8.542;2023-02-18T14:41:13;98853.75;;;10.32;82.67
69971;BME280;57301;50.328;8.542;2023-02-18T14:49:04;98850.78;;;10.16;84.13
69971;BME280;57301;50.328;8.542;2023-02-18T14:51:34;98848.41;;;10.13;84.39
69971;BME280;57301;50.328;8.542;2023-02-18T14:54:03;98852.03;;;10.21;83.24
69971;BME280;57301;50.328;8.542;2023-02-18T14:56:36;98844.50;;;10.07;83.23
69971;BME280;57301;50.328;8.542;2023-02-18T14:59:04;98856.41;;;10.13;82.84
69971;BME280;57301;50.328;8.542;2023-02-18T15:01:33;98858.94;;;10.34;82.63
69971;BME280;57301;50.328;8.542;2023-02-18T15:04:01;98850.38;;;10.30;82.74
69971;BME280;57301;50.328;8.542;2023-02-18T15:06:32;98858.50;;;10.09;83.01
69971;BME280;57301;50.328;8.542;2023-02-18T15:09:00;98844.78;;;9.94;83.03
69971;BME280;57301;50.328;8.542;2023-02-18T15:11:36;98847.03;;;9.89;82.92
69971;BME280;57301;50.328;8.542;2023-02-18T15:14:25;98859.63;;;10.16;83.09
69971;BME280;57301;50.328;8.542;2023-02-18T15:16:53;98866.50;;;10.09;82.49
69971;BME280;57301;50.328;8.542;2023-02-18T15:19:22;98863.41;;;10.14;82.27
69971;BME280;57301;50.328;8.542;2023-02-18T15:21:52;98862.00;;;10.10;83.07